createdAt,value
2023-04-16T00:08:37.315Z,11.43
2023-04-16T00:18:41.392Z,13.53
2023-04-16T00:28:44.318Z,14.70
2023-04-16T00:38:49.104Z,13.93
2023-04-16T00:48:52.768Z,15.90
2023-04-16T00:58:57.604Z,14.90
2023-04-16T01:09:00.788Z,13.70
2023-04-16T01:19:05.117Z,13.87
2023-04-16T01:29:09.574Z,18.87
2023-04-16T01:39:15.862Z,19.17
2023-04-16T01:49:20.408Z,19.90
2023-04-16T01:59:23.433Z,19.27
2023-04-16T02:09:27.940Z,19.50
2023-04-16T02:19:31.622Z,21.23
2023-04-16T02:29:36.818Z,19.87
2023-04-16T02:39:49.681Z,21.00
2023-04-16T02:49:54.194Z,22.13
2023-04-16T02:59:57.545Z,21.57
2023-04-16T03:10:02.504Z,21.70
2023-04-16T03:20:06.869Z,21.17
2023-04-16T03:30:12.666Z,21.60
2023-04-16T03:40:15.888Z,21.93
2023-04-16T03:50:21.423Z,19.37
2023-04-16T04:00:24.545Z,19.17
2023-04-16T04:10:39.042Z,17.83
2023-04-16T04:20:43.582Z,16.07
2023-04-16T04:30:51.694Z,16.30
2023-04-16T04:40:57.253Z,17.53
2023-04-16T04:51:05.309Z,18.23
2023-04-16T05:01:09.528Z,19.63
2023-04-16T05:11:13.758Z,20.30
2023-04-16T05:21:16.789Z,21.90
2023-04-16T05:31:21.323Z,21.70
2023-04-16T05:41:24.671Z,22.67
2023-04-16T05:51:29.602Z,24.37
2023-04-16T06:01:34.371Z,23.00
2023-04-16T06:11:38.823Z,23.37
2023-04-16T06:21:41.930Z,23.77
2023-04-16T06:31:46.475Z,23.00
2023-04-16T06:41:49.581Z,23.60
2023-04-16T06:51:55.523Z,24.43
2023-04-16T07:01:58.780Z,22.23
2023-04-16T07:12:03.407Z,21.90
2023-04-16T07:22:06.428Z,20.50
2023-04-16T07:32:13.380Z,19.63
2023-04-16T07:42:17.788Z,16.87
2023-04-16T07:52:22.176Z,16.50
2023-04-16T08:02:25.635Z,16.10
2023-04-16T08:12:30.478Z,14.03
2023-04-16T08:22:34.608Z,14.80
2023-04-16T08:32:39.171Z,15.17
2023-04-16T08:42:46.935Z,15.87
2023-04-16T08:52:56.517Z,14.90
2023-04-16T09:03:00.590Z,21.57
2023-04-16T09:13:05.605Z,27.90
2023-04-16T09:23:59.841Z,34.47
2023-04-16T09:34:05.524Z,38.70
2023-04-16T09:44:08.602Z,36.13
2023-04-16T09:54:13.535Z,34.43
2023-04-16T10:04:17.653Z,35.50
2023-04-16T10:14:22.178Z,36.13
2023-04-16T10:24:26.350Z,37.67
2023-04-16T10:34:32.384Z,35.67
2023-04-16T10:44:36.113Z,34.47
2023-04-16T10:54:41.752Z,34.87
2023-04-16T11:04:46.489Z,33.20
2023-04-16T11:14:53.139Z,29.73
2023-04-16T11:24:57.579Z,29.27
2023-04-16T11:35:04.884Z,25.27
2023-04-16T11:45:09.539Z,30.50
2023-04-16T11:55:14.652Z,27.60
2023-04-16T12:05:33.375Z,29.93
2023-04-16T12:15:47.335Z,27.63
2023-04-16T12:25:52.647Z,26.60
2023-04-16T12:35:56.941Z,27.93
2023-04-16T12:46:00.793Z,25.70
2023-04-16T12:56:06.958Z,25.70
2023-04-16T13:06:10.345Z,25.30
2023-04-16T13:16:14.908Z,26.40
2023-04-16T13:26:18.144Z,23.77
2023-04-16T13:36:22.623Z,22.30
2023-04-16T13:46:27.393Z,22.83
2023-04-16T13:56:31.622Z,20.57
2023-04-16T14:06:35.308Z,18.73
2023-04-16T14:16:41.261Z,16.57
2023-04-16T14:26:44.697Z,15.93
2023-04-16T14:36:52.237Z,18.47
2023-04-16T14:46:55.409Z,15.97
2023-04-16T14:57:02.026Z,14.80
2023-04-16T15:07:06.799Z,14.17
2023-04-16T15:17:12.570Z,13.10
2023-04-16T15:37:47.496Z,12.97
2023-04-16T15:47:51.500Z,12.97
2023-04-16T15:57:57.821Z,11.93
2023-04-16T16:08:02.986Z,11.00
2023-04-16T16:18:08.049Z,12.43
2023-04-16T16:28:11.570Z,12.93
2023-04-16T16:38:16.601Z,18.00
2023-04-16T16:48:20.162Z,18.73
2023-04-16T16:58:26.018Z,17.37
2023-04-16T17:08:29.153Z,17.87
2023-04-16T17:18:33.984Z,20.37
2023-04-16T17:28:37.322Z,19.77
2023-04-16T17:38:44.676Z,20.13
2023-04-16T17:48:49.017Z,20.23
2023-04-16T17:58:53.880Z,20.83
2023-04-16T18:08:57.642Z,22.40
2023-04-16T18:19:03.378Z,21.03
2023-04-16T18:29:06.400Z,21.77
2023-04-16T18:39:11.006Z,19.57
2023-04-16T18:49:16.346Z,19.23
2023-04-16T18:59:20.819Z,20.50
2023-04-16T19:09:26.556Z,22.00
2023-04-16T19:19:31.475Z,25.40
2023-04-16T19:29:37.177Z,25.87
2023-04-16T19:39:41.666Z,22.60
2023-04-16T19:49:46.751Z,22.23
2023-04-16T19:59:52.975Z,25.20
2023-04-16T20:09:57.364Z,25.90
2023-04-16T20:20:08.912Z,27.57
2023-04-16T20:30:15.294Z,26.53
2023-04-16T20:40:21.290Z,26.53
2023-04-16T20:50:24.653Z,27.37
2023-04-16T21:00:29.346Z,26.97
2023-04-16T21:10:33.314Z,27.23
2023-04-16T21:20:41.068Z,26.50
2023-04-16T21:30:44.661Z,26.13
2023-04-16T21:40:50.674Z,25.53
2023-04-16T21:50:58.732Z,25.37
2023-04-16T22:01:03.496Z,25.13
2023-04-16T22:11:06.797Z,26.67
2023-04-16T22:21:11.638Z,27.67
2023-04-16T22:31:15.118Z,31.33
2023-04-16T22:41:19.960Z,31.13
2023-04-16T22:51:24.483Z,32.23
2023-04-16T23:01:28.822Z,31.93
2023-04-16T23:11:32.099Z,31.87
2023-04-16T23:21:37.673Z,35.17
2023-04-16T23:31:40.890Z,34.77
2023-04-16T23:41:45.314Z,36.07
2023-04-16T23:51:48.218Z,39.23
